Time;durP1;ratioP1;P1;durP2;ratioP2;P2;SDS_P1;SDS_P2;PMS_P1;PMS_P2;Temp;Humidity;BMP_temperature;BMP_pressure;BME280_temperature;BME280_humidity;BME280_pressure;Samples;Min_cycle;Max_cycle;Signal;HPM_P1;HPM_P2
2019/12/17 00:00:04;;;;;;;21.7;14.2;;;;;;;4.14;75.66309;952.0894;;;;
2019/12/17 00:02:28;;;;;;;20.7;14.5;;;;;;;4.14;75.66309;952.2053;;;;
2019/12/17 00:04:53;;;;;;;20.4;14.1;;;;;;;4.13;75.50098;952.2576;;;;
2019/12/17 00:07:19;;;;;;;18.5;13.8;;;;;;;4.05;75.7627;952.2777;;;;
2019/12/17 00:09:43;;;;;;;21.7;15.7;;;;;;;4.15;75.66406;952.4083;;;;
2019/12/17 00:12:09;;;;;;;17;13.4;;;;;;;4.06;75.9375;952.4224;;;;
2019/12/17 00:14:34;;;;;;;16.8;13.4;;;;;;;3.95;76.1709;952.3644;;;;
2019/12/17 00:16:59;;;;;;;18.2;13.2;;;;;;;3.96;76.47266;952.314;;;;
2019/12/17 00:19:24;;;;;;;18.5;13;;;;;;;4.04;76.54492;952.2338;;;;
2019/12/17 00:21:49;;;;;;;17.9;13.2;;;;;;;3.99;76.14453;952.2798;;;;
2019/12/17 00:24:14;;;;;;;16.7;13.8;;;;;;;3.89;76.49609;952.2109;;;;
2019/12/17 00:26:39;;;;;;;18.1;12.6;;;;;;;3.95;75.74512;952.1459;;;;
2019/12/17 00:29:04;;;;;;;16.7;12.8;;;;;;;3.87;76.3418;952.1;;;;
2019/12/17 00:31:29;;;;;;;19.6;13.7;;;;;;;3.8;76.58398;952.1369;;;;
2019/12/17 00:33:54;;;;;;;18.8;12.1;;;;;;;3.81;76.83984;952.0901;;;;
2019/12/17 00:36:20;;;;;;;19.7;13.4;;;;;;;3.99;76.375;952.0425;;;;
2019/12/17 00:38:45;;;;;;;19.9;12.7;;;;;;;3.81;76.66699;951.9974;;;;
2019/12/17 00:41:10;;;;;;;19.9;12.4;;;;;;;3.67;77.05664;951.9055;;;;
2019/12/17 00:43:35;;;;;;;17.3;12.5;;;;;;;3.72;76.91602;951.9903;;;;
2019/12/17 00:46:00;;;;;;;17.3;12.6;;;;;;;3.79;76.66211;952.0161;;;;
2019/12/17 00:48:25;;;;;;;17.9;12.5;;;;;;;3.79;76.43066;952.0547;;;;
2019/12/17 00:52:14;;;;;;;20.7;14;;;;;;;3.9;76.37109;952.1037;;;;
2019/12/17 00:53:18;;;;;;;17.8;13.3;;;;;;;3.94;76.26367;952.0009;;;;
2019/12/17 00:55:40;;;;;;;19.5;14.8;;;;;;;3.94;76.64453;952.0959;;;;
2019/12/17 00:58:05;;;;;;;19.4;15;;;;;;;3.95;76.58789;952.1028;;;;
2019/12/17 01:00:30;;;;;;;18.6;13.2;;;;;;;3.87;77.08008;951.9561;;;;
2019/12/17 01:02:55;;;;;;;16.6;12.4;;;;;;;3.85;77.23828;951.9639;;;;
2019/12/17 01:05:20;;;;;;;17.5;12.9;;;;;;;3.8;77.37988;951.9156;;;;
2019/12/17 01:07:45;;;;;;;17.7;13.2;;;;;;;3.82;77.18555;951.9805;;;;
2019/12/17 01:10:11;;;;;;;20.2;14.2;;;;;;;3.93;76.65234;951.9023;;;;
2019/12/17 01:12:36;;;;;;;14.9;12;;;;;;;3.9;76.87891;951.8456;;;;
2019/12/17 01:15:01;;;;;;;17.5;13.1;;;;;;;3.87;76.99902;951.8699;;;;
2019/12/17 01:17:26;;;;;;;18.8;13.9;;;;;;;3.95;76.60938;951.8945;;;;
2019/12/17 01:19:51;;;;;;;17.4;12.4;;;;;;;3.96;76.42773;951.9395;;;;
2019/12/17 01:22:16;;;;;;;18.2;13.2;;;;;;;3.84;77.19043;951.9264;;;;
2019/12/17 01:24:41;;;;;;;20.7;12.1;;;;;;;3.85;76.77637;951.9037;;;;
2019/12/17 01:27:06;;;;;;;15.2;12.3;;;;;;;3.84;76.79785;951.8458;;;;
2019/12/17 01:29:31;;;;;;;17.6;11.9;;;;;;;3.88;76.80664;951.8477;;;;
2019/12/17 01:31:56;;;;;;;15.3;12.7;;;;;;;3.92;76.24707;951.84;;;;
2019/12/17 01:34:22;;;;;;;15.1;12.4;;;;;;;3.84;76.85547;951.7977;;;;
2019/12/17 01:36:47;;;;;;;19.6;12.6;;;;;;;3.87;76.87207;951.9079;;;;
2019/12/17 01:39:12;;;;;;;17;12.2;;;;;;;3.81;77.3457;951.8697;;;;
2019/12/17 01:41:37;;;;;;;17.8;12.4;;;;;;;3.91;76.87988;951.8155;;;;
2019/12/17 01:44:02;;;;;;;22.7;14.4;;;;;;;3.95;76.55371;951.9763;;;;
2019/12/17 01:46:27;;;;;;;20.2;13.3;;;;;;;3.87;76.72266;951.8644;;;;
2019/12/17 01:48:52;;;;;;;17.8;13.3;;;;;;;3.96;76.49707;951.8832;;;;
2019/12/17 01:51:17;;;;;;;16.9;12.4;;;;;;;3.83;76.85449;951.9311;;;;
2019/12/17 01:53:42;;;;;;;17.4;12.4;;;;;;;3.91;76.6377;951.9916;;;;
2019/12/17 01:56:07;;;;;;;19.9;14.1;;;;;;;3.97;76.59082;951.9645;;;;
2019/12/17 01:58:32;;;;;;;17.8;12.6;;;;;;;3.97;76.68164;951.8723;;;;
2019/12/17 02:00:57;;;;;;;17.8;12.1;;;;;;;3.97;76.6377;951.7745;;;;
2019/12/17 02:03:25;;;;;;;17.1;12.6;;;;;;;3.94;76.26172;951.7824;;;;
2019/12/17 02:05:51;;;;;;;18.3;12.4;;;;;;;3.87;76.58398;951.9191;;;;
2019/12/17 02:08:14;;;;;;;17;12.2;;;;;;;3.78;77.30664;951.9097;;;;
2019/12/17 02:10:38;;;;;;;18.5;12.3;;;;;;;3.86;76.95117;951.9422;;;;
2019/12/17 02:13:03;;;;;;;15.4;11.8;;;;;;;3.96;76.36914;951.9166;;;;
2019/12/17 02:15:28;;;;;;;16.8;13;;;;;;;3.88;76.97949;952.0165;;;;
2019/12/17 02:17:53;;;;;;;16.2;13.4;;;;;;;3.85;77.24023;951.9141;;;;
2019/12/17 02:20:18;;;;;;;18.3;14;;;;;;;3.81;77.37012;951.9154;;;;
2019/12/17 02:22:43;;;;;;;20.3;13.7;;;;;;;3.79;77.58496;951.9761;;;;
2019/12/17 02:25:08;;;;;;;16.7;12.7;;;;;;;3.9;77.09668;951.9125;;;;
2019/12/17 02:27:33;;;;;;;17.5;12.6;;;;;;;4.01;76.5625;951.6171;;;;
2019/12/17 02:29:58;;;;;;;22;14.9;;;;;;;4;76.65332;951.8425;;;;
2019/12/17 02:32:23;;;;;;;21.9;13.2;;;;;;;3.91;77.10938;951.6877;;;;
2019/12/17 02:34:49;;;;;;;19.6;14.3;;;;;;;3.81;77.25488;951.8597;;;;
2019/12/17 02:37:14;;;;;;;19.3;13.4;;;;;;;3.81;77.72754;951.791;;;;
2019/12/17 02:39:39;;;;;;;18.4;13.7;;;;;;;3.7;78.22656;951.7216;;;;
2019/12/17 02:42:04;;;;;;;16.8;12.3;;;;;;;3.82;77.60254;951.8171;;;;
2019/12/17 02:44:29;;;;;;;17.7;13.2;;;;;;;3.84;77.74414;951.817;;;;
2019/12/17 02:46:54;;;;;;;19.6;13.4;;;;;;;3.88;77.47559;951.9288;;;;
2019/12/17 02:49:19;;;;;;;22.2;13.8;;;;;;;4.03;77.1543;951.8078;;;;
2019/12/17 02:51:44;;;;;;;19.5;14;;;;;;;3.89;77.17676;951.8523;;;;
2019/12/17 02:54:09;;;;;;;17.3;12.6;;;;;;;3.77;78.30859;951.9161;;;;
2019/12/17 02:56:34;;;;;;;17.1;11.9;;;;;;;3.84;78.32129;951.6761;;;;
2019/12/17 02:58:59;;;;;;;17;13.7;;;;;;;3.85;77.86133;951.7989;;;;
2019/12/17 03:01:25;;;;;;;19.6;13;;;;;;;3.8;78.33789;951.8217;;;;
2019/12/17 03:03:50;;;;;;;18.2;12.5;;;;;;;3.83;78.22852;951.7835;;;;
2019/12/17 03:06:15;;;;;;;17.5;12.1;;;;;;;3.98;77.6543;951.7952;;;;
2019/12/17 03:08:40;;;;;;;17.1;11.9;;;;;;;3.89;77.73047;951.6705;;;;
2019/12/17 03:11:05;;;;;;;19.5;12.8;;;;;;;3.95;77.03613;951.5631;;;;
2019/12/17 03:13:34;;;;;;;15.9;11.9;;;;;;;3.88;77.39258;951.6233;;;;
2019/12/17 03:16:09;;;;;;;17.2;13;;;;;;;3.79;78.06934;951.6895;;;;
2019/12/17 03:18:20;;;;;;;17.8;12.4;;;;;;;3.81;77.85449;951.6853;;;;
2019/12/17 03:20:45;;;;;;;17;12.2;;;;;;;3.89;77.47656;951.722;;;;
2019/12/17 03:23:10;;;;;;;17.3;12.6;;;;;;;3.86;77.51855;951.6588;;;;
2019/12/17 03:25:35;;;;;;;21.8;12.9;;;;;;;3.87;77.20703;951.5659;;;;
2019/12/17 03:28:00;;;;;;;17.5;12.2;;;;;;;3.84;77.10938;951.5941;;;;
2019/12/17 03:30:26;;;;;;;18.4;12.8;;;;;;;3.74;77.95703;951.6769;;;;
2019/12/17 03:32:51;;;;;;;16.9;12;;;;;;;3.81;77.68164;951.5862;;;;
2019/12/17 03:35:16;;;;;;;17.9;12.3;;;;;;;3.79;77.79199;951.5731;;;;
2019/12/17 03:37:41;;;;;;;18.2;13.1;;;;;;;3.82;77.64844;951.5927;;;;
2019/12/17 03:40:06;;;;;;;21;15.6;;;;;;;3.86;77.26465;951.5742;;;;
2019/12/17 03:42:31;;;;;;;18.3;13.1;;;;;;;3.84;77.4209;951.5606;;;;
2019/12/17 03:44:56;;;;;;;20.6;15.8;;;;;;;3.83;77.53516;951.5386;;;;
2019/12/17 03:47:21;;;;;;;18.2;13.6;;;;;;;3.79;77.60742;951.4138;;;;
2019/12/17 03:49:47;;;;;;;17;13.2;;;;;;;3.74;77.66895;951.3784;;;;
2019/12/17 03:52:12;;;;;;;17.7;12.5;;;;;;;3.74;77.58691;951.3928;;;;
2019/12/17 03:54:37;;;;;;;16.2;12.7;;;;;;;3.81;77.37012;951.4914;;;;
2019/12/17 03:57:02;;;;;;;19.2;12.5;;;;;;;3.82;77.41602;951.5076;;;;
2019/12/17 03:59:27;;;;;;;18.6;12.5;;;;;;;3.82;77.1875;951.5942;;;;
2019/12/17 04:02:26;;;;;;;17.3;13.3;;;;;;;3.88;77.39258;951.4778;;;;
2019/12/17 04:04:51;;;;;;;19.7;13.9;;;;;;;3.78;77.40039;951.4157;;;;
2019/12/17 04:07:16;;;;;;;20.4;13.2;;;;;;;3.77;77.55859;951.4519;;;;
2019/12/17 04:09:41;;;;;;;17;13;;;;;;;3.69;77.90137;951.5073;;;;
2019/12/17 04:12:20;;;;;;;17.8;13;;;;;;;3.67;77.66797;951.5756;;;;
2019/12/17 04:17:10;;;;;;;17.4;12.6;;;;;;;3.69;77.34766;951.5217;;;;
2019/12/17 04:19:22;;;;;;;18.8;12.9;;;;;;;3.65;77.4668;951.601;;;;
2019/12/17 04:21:47;;;;;;;18.1;13.6;;;;;;;3.75;77.15332;951.579;;;;
2019/12/17 04:24:12;;;;;;;18.7;13.4;;;;;;;3.77;77.29199;951.5728;;;;
2019/12/17 04:26:37;;;;;;;19.9;13.7;;;;;;;3.72;77.59668;951.6564;;;;
2019/12/17 04:29:02;;;;;;;22.8;13.8;;;;;;;3.81;77.13965;951.5947;;;;
2019/12/17 04:31:27;;;;;;;16.6;13.6;;;;;;;3.47;78.12695;951.4956;;;;
2019/12/17 04:33:52;;;;;;;18.3;13.6;;;;;;;3.51;78.23828;951.616;;;;
2019/12/17 04:36:17;;;;;;;17.8;13.6;;;;;;;3.5;78.87109;951.5347;;;;
2019/12/17 04:38:42;;;;;;;18.9;14;;;;;;;3.59;78.27637;951.6564;;;;
2019/12/17 04:41:07;;;;;;;18.3;12.9;;;;;;;3.62;78.32715;951.4877;;;;
2019/12/17 04:43:32;;;;;;;18.3;13.1;;;;;;;3.63;78.40918;951.6489;;;;
2019/12/17 04:46:12;;;;;;;17.1;12.7;;;;;;;3.69;78.33984;951.5215;;;;
2019/12/17 04:48:23;;;;;;;19.2;12.7;;;;;;;3.78;78.09082;951.5276;;;;
2019/12/17 04:50:48;;;;;;;21.3;15.4;;;;;;;3.82;77.84473;951.6547;;;;
2019/12/17 04:53:13;;;;;;;17.1;12.8;;;;;;;3.79;77.84961;951.5781;;;;
2019/12/17 04:55:38;;;;;;;19;12.9;;;;;;;3.74;78.02539;951.5765;;;;
2019/12/17 04:58:03;;;;;;;19.1;12.5;;;;;;;3.84;77.50195;951.6141;;;;
2019/12/17 05:00:30;;;;;;;17.1;13.3;;;;;;;3.8;77.95703;951.6881;;;;
2019/12/17 05:02:55;;;;;;;22.8;14.9;;;;;;;3.93;77.67969;951.6836;;;;
2019/12/17 05:05:20;;;;;;;21.7;13.1;;;;;;;3.87;77.81836;951.6656;;;;
2019/12/17 05:07:45;;;;;;;21;13.5;;;;;;;3.86;78.39551;951.6546;;;;
2019/12/17 05:10:10;;;;;;;23.1;15.3;;;;;;;3.96;77.92676;951.6655;;;;
2019/12/17 05:13:17;;;;;;;20.1;14.3;;;;;;;3.83;78.48145;951.7516;;;;
2019/12/17 05:15:13;;;;;;;17.7;13.4;;;;;;;3.94;77.95996;951.77;;;;
2019/12/17 05:17:26;;;;;;;20.2;14.6;;;;;;;3.87;78.12988;951.8674;;;;
2019/12/17 05:19:51;;;;;;;21.8;15.4;;;;;;;3.96;77.65137;951.8462;;;;
2019/12/17 05:22:16;;;;;;;19.4;14.6;;;;;;;3.86;78.00293;951.8583;;;;
2019/12/17 05:24:41;;;;;;;23;14.7;;;;;;;3.87;78.01465;951.8989;;;;
2019/12/17 05:27:06;;;;;;;18.9;13.2;;;;;;;4.01;77.56836;951.8994;;;;
2019/12/17 05:29:31;;;;;;;20.3;13.4;;;;;;;3.96;77.90332;951.9253;;;;
2019/12/17 05:31:56;;;;;;;25;14;;;;;;;3.92;77.91992;952.0203;;;;
2019/12/17 05:34:21;;;;;;;19;13.2;;;;;;;3.95;78.06543;952.022;;;;
2019/12/17 05:36:46;;;;;;;20;13.3;;;;;;;4.03;77.67578;952.0215;;;;
2019/12/17 05:39:11;;;;;;;18;12.7;;;;;;;4.02;77.87012;952.0759;;;;
2019/12/17 05:41:37;;;;;;;21.6;14.1;;;;;;;4.02;77.61621;952.1225;;;;
2019/12/17 05:44:02;;;;;;;21.5;15.4;;;;;;;4.11;77.30957;952.1749;;;;
2019/12/17 05:46:27;;;;;;;19.5;13.5;;;;;;;4;77.6709;952.093;;;;
2019/12/17 05:48:52;;;;;;;18.4;13.3;;;;;;;4.03;77.89355;952.1522;;;;
2019/12/17 05:51:17;;;;;;;19.4;13.6;;;;;;;3.9;78.44824;952.1407;;;;
2019/12/17 05:53:42;;;;;;;22.8;15.9;;;;;;;3.92;78.23242;952.0884;;;;
2019/12/17 05:56:07;;;;;;;20.6;14.2;;;;;;;3.94;78.14453;952.0122;;;;
2019/12/17 05:58:32;;;;;;;23.2;13.7;;;;;;;3.84;78.34473;952.0903;;;;
2019/12/17 06:00:57;;;;;;;18.4;13.5;;;;;;;3.89;78.31934;952.0709;;;;
2019/12/17 06:03:22;;;;;;;19.4;13;;;;;;;3.85;78.56543;952.2095;;;;
2019/12/17 06:05:47;;;;;;;17.9;12.6;;;;;;;3.88;78.50098;952.1744;;;;
2019/12/17 06:08:12;;;;;;;20.2;13.1;;;;;;;3.86;78.75293;952.2653;;;;
2019/12/17 06:10:37;;;;;;;20.4;13.1;;;;;;;3.83;78.76953;952.209;;;;
2019/12/17 06:13:02;;;;;;;18.9;12.7;;;;;;;3.86;78.49805;952.2308;;;;
2019/12/17 06:15:27;;;;;;;16.2;11.8;;;;;;;3.87;78.73047;952.2326;;;;
2019/12/17 06:17:53;;;;;;;20.9;13.3;;;;;;;3.91;78.3457;952.3591;;;;
2019/12/17 06:23:34;;;;;;;17.3;12.5;;;;;;;3.95;78.45801;952.3857;;;;
2019/12/17 06:25:08;;;;;;;17.5;12.3;;;;;;;3.99;78.24512;952.3699;;;;
2019/12/17 06:27:33;;;;;;;17.2;12.1;;;;;;;3.94;78.62891;952.3669;;;;
2019/12/17 06:29:58;;;;;;;15.9;12.2;;;;;;;3.89;78.46973;952.3736;;;;
2019/12/17 06:32:23;;;;;;;18.5;13.4;;;;;;;3.96;78.20508;952.4119;;;;
2019/12/17 06:34:48;;;;;;;16.6;12.5;;;;;;;3.87;78.8916;952.5047;;;;
2019/12/17 06:37:13;;;;;;;19;12.6;;;;;;;3.88;78.63965;952.5435;;;;
2019/12/17 06:39:38;;;;;;;18.5;13.4;;;;;;;3.81;79.10059;952.6209;;;;
2019/12/17 06:42:03;;;;;;;17.1;12.1;;;;;;;3.82;79.07813;952.6361;;;;
2019/12/17 06:44:28;;;;;;;19.7;12.2;;;;;;;4.15;80.96387;952.7028;;;;
2019/12/17 06:46:53;;;;;;;19.8;13.1;;;;;;;4.16;78.76074;952.7119;;;;
2019/12/17 06:49:18;;;;;;;19.3;12.8;;;;;;;4.27;78.21582;952.7455;;;;
2019/12/17 06:51:44;;;;;;;17.2;12.3;;;;;;;4.27;77.80176;952.7316;;;;
2019/12/17 06:54:09;;;;;;;17.2;12.5;;;;;;;4.31;77.20605;952.7618;;;;
2019/12/17 06:56:34;;;;;;;17.3;12.5;;;;;;;4.28;77.31641;952.7859;;;;
2019/12/17 07:00:13;;;;;;;18;14;;;;;;;4.31;77.19531;952.7148;;;;
2019/12/17 07:01:37;;;;;;;19.7;13;;;;;;;4.18;77.62109;952.7389;;;;
2019/12/17 07:03:49;;;;;;;18.9;13.7;;;;;;;4.05;78.42969;952.9063;;;;
2019/12/17 07:06:14;;;;;;;21.8;13.3;;;;;;;4.18;77.78223;952.9016;;;;
2019/12/17 07:08:39;;;;;;;17.3;13.1;;;;;;;4.06;78.21191;952.844;;;;
2019/12/17 07:11:05;;;;;;;20.6;14.1;;;;;;;3.97;78.59961;952.9009;;;;
2019/12/17 07:13:30;;;;;;;19.3;13.9;;;;;;;4.09;78.13574;952.8348;;;;
2019/12/17 07:15:55;;;;;;;17.7;12.8;;;;;;;4.09;78.00879;952.8741;;;;
2019/12/17 07:18:20;;;;;;;16.3;13.4;;;;;;;4.06;78.25781;952.9534;;;;
2019/12/17 07:20:45;;;;;;;17.1;13.2;;;;;;;3.99;78.49707;952.9365;;;;
2019/12/17 07:23:10;;;;;;;17.1;13.1;;;;;;;4.05;78.23145;953.0617;;;;
2019/12/17 07:25:39;;;;;;;20;14;;;;;;;3.99;78.94922;953.1818;;;;
2019/12/17 07:28:01;;;;;;;17.3;12.7;;;;;;;3.95;78.82715;953.1564;;;;
2019/12/17 07:30:26;;;;;;;17.4;13.4;;;;;;;4;78.65234;953.2194;;;;
2019/12/17 07:32:51;;;;;;;20.5;15.1;;;;;;;3.95;79.21777;953.1479;;;;
2019/12/17 07:35:16;;;;;;;22.7;15.4;;;;;;;4;78.91797;953.2544;;;;
2019/12/17 07:37:41;;;;;;;22.3;15.6;;;;;;;3.97;79.26855;953.2536;;;;
2019/12/17 07:40:06;;;;;;;25.8;15.9;;;;;;;4;79.06738;953.3208;;;;
2019/12/17 07:42:32;;;;;;;20.8;15.3;;;;;;;4.14;78.71094;953.3345;;;;
2019/12/17 07:44:57;;;;;;;22.1;15.3;;;;;;;4.18;78.25781;953.2941;;;;
2019/12/17 07:47:22;;;;;;;22;15.5;;;;;;;4.26;77.99512;953.2557;;;;
2019/12/17 07:49:47;;;;;;;22.4;15.9;;;;;;;4.31;77.8877;953.2464;;;;
2019/12/17 07:52:12;;;;;;;21.2;16.1;;;;;;;4.31;77.77148;953.2545;;;;
2019/12/17 07:54:37;;;;;;;20;15.7;;;;;;;4.47;77.30371;953.3599;;;;
2019/12/17 07:57:02;;;;;;;22.8;15.7;;;;;;;4.53;76.89844;953.3962;;;;
2019/12/17 07:59:27;;;;;;;21.3;15.9;;;;;;;4.48;77.37598;953.3792;;;;
2019/12/17 08:01:53;;;;;;;24;16.5;;;;;;;4.54;77.36426;953.3958;;;;
2019/12/17 08:04:18;;;;;;;26.1;18.2;;;;;;;4.52;77.40723;953.5524;;;;
2019/12/17 08:06:43;;;;;;;23.9;17.4;;;;;;;4.39;78.06543;953.4817;;;;
2019/12/17 08:09:08;;;;;;;22.4;17.3;;;;;;;4.35;78.17285;953.4976;;;;
2019/12/17 08:11:33;;;;;;;23.6;16.5;;;;;;;4.51;77.75098;953.5016;;;;
2019/12/17 08:13:58;;;;;;;23.7;16.1;;;;;;;4.57;77.60059;953.7363;;;;
2019/12/17 08:16:23;;;;;;;23.4;16.3;;;;;;;4.45;78.24805;953.6462;;;;
2019/12/17 08:18:48;;;;;;;23.1;16.4;;;;;;;4.43;78.62598;953.6395;;;;
2019/12/17 08:21:13;;;;;;;23.6;17.5;;;;;;;4.48;78.82031;953.7511;;;;
2019/12/17 08:23:38;;;;;;;22;15.3;;;;;;;4.45;78.90625;953.6401;;;;
2019/12/17 08:26:03;;;;;;;24.3;16.4;;;;;;;4.38;79.47266;953.747;;;;
2019/12/17 08:28:29;;;;;;;22.8;15.4;;;;;;;4.54;78.87793;953.8184;;;;
2019/12/17 08:30:54;;;;;;;23.9;16.3;;;;;;;4.4;79.71875;953.7936;;;;
2019/12/17 08:33:19;;;;;;;26.2;18.7;;;;;;;4.38;79.85254;953.9288;;;;
2019/12/17 08:35:44;;;;;;;22;16.7;;;;;;;4.34;80.31934;953.9108;;;;
2019/12/17 08:38:09;;;;;;;24.4;16.8;;;;;;;4.41;80.11328;953.9742;;;;
2019/12/17 08:45:24;;;;;;;26.3;18.2;;;;;;;4.58;79.50879;954.2159;;;;
2019/12/17 08:47:49;;;;;;;21.2;16.4;;;;;;;4.61;79.33105;954.1301;;;;
2019/12/17 08:50:14;;;;;;;23.8;18.6;;;;;;;4.46;80.22754;954.1895;;;;
2019/12/17 08:52:40;;;;;;;22;17.3;;;;;;;4.47;80.58691;954.3217;;;;
2019/12/17 08:55:05;;;;;;;23.3;17.3;;;;;;;4.6;79.62988;954.1905;;;;
2019/12/17 08:57:30;;;;;;;22.6;17.2;;;;;;;4.63;79.84082;954.3422;;;;
2019/12/17 08:59:55;;;;;;;21.9;16.9;;;;;;;4.7;79.42773;954.1711;;;;
2019/12/17 09:02:20;;;;;;;22.3;16.8;;;;;;;4.73;80.11523;954.2243;;;;
2019/12/17 09:04:45;;;;;;;26.4;18.4;;;;;;;4.78;80.18262;954.3691;;;;
2019/12/17 09:07:10;;;;;;;28.7;18.5;;;;;;;4.83;79.88086;954.3389;;;;
2019/12/17 09:09:35;;;;;;;27.3;18.5;;;;;;;4.89;79.95996;954.3553;;;;
2019/12/17 09:12:00;;;;;;;27.8;19.9;;;;;;;4.95;79.97168;954.4734;;;;
2019/12/17 09:14:25;;;;;;;33;21.2;;;;;;;5.08;79.39453;954.3481;;;;
2019/12/17 09:16:50;;;;;;;31.8;21.7;;;;;;;5.08;79.61426;954.4932;;;;
2019/12/17 09:19:15;;;;;;;33;23.2;;;;;;;5.06;79.47168;954.5458;;;;
2019/12/17 09:21:40;;;;;;;35.7;25.1;;;;;;;5.2;78.86133;954.5033;;;;
2019/12/17 09:24:05;;;;;;;42.2;24.8;;;;;;;5.3;78.97168;954.6233;;;;
2019/12/17 09:26:31;;;;;;;34.9;24.4;;;;;;;5.36;78.36816;954.5692;;;;
2019/12/17 09:28:56;;;;;;;44.1;24.7;;;;;;;5.34;78.40137;954.5313;;;;
2019/12/17 09:31:21;;;;;;;40.4;27.6;;;;;;;5.29;78.41504;954.6667;;;;
2019/12/17 09:33:46;;;;;;;44.6;27.1;;;;;;;5.42;78.26367;954.7059;;;;
2019/12/17 09:36:11;;;;;;;40.3;26;;;;;;;5.57;77.46973;954.6172;;;;
2019/12/17 09:38:36;;;;;;;41.3;26.5;;;;;;;5.53;77.9834;954.6364;;;;
2019/12/17 09:41:01;;;;;;;38.4;25.1;;;;;;;5.59;77.38086;954.5387;;;;
2019/12/17 09:43:26;;;;;;;36.1;22.8;;;;;;;5.6;77.06934;954.5134;;;;
2019/12/17 09:45:51;;;;;;;37.8;22.9;;;;;;;5.6;77.40527;954.4982;;;;
2019/12/17 09:48:16;;;;;;;36.4;23;;;;;;;5.71;76.75195;954.5208;;;;
2019/12/17 09:50:41;;;;;;;30.3;21.5;;;;;;;5.68;76.37793;954.6144;;;;
2019/12/17 09:53:06;;;;;;;31.6;21.3;;;;;;;5.77;76.01172;954.5919;;;;
2019/12/17 09:55:31;;;;;;;34.7;22.4;;;;;;;5.84;76.11621;954.5499;;;;
2019/12/17 09:57:57;;;;;;;35.9;23;;;;;;;5.87;76.3418;954.5886;;;;
2019/12/17 10:00:48;;;;;;;35.9;20.7;;;;;;;6.06;76.04004;954.5891;;;;
2019/12/17 10:03:03;;;;;;;36.7;22.4;;;;;;;6.06;76.62988;954.6281;;;;
2019/12/17 10:05:16;;;;;;;36.3;24.9;;;;;;;6.05;77.2666;954.6332;;;;
2019/12/17 10:07:37;;;;;;;34.2;22.9;;;;;;;6.12;76.81641;954.57;;;;
2019/12/17 10:10:02;;;;;;;33.1;21.9;;;;;;;6.11;76.84766;954.6202;;;;
2019/12/17 10:12:27;;;;;;;37;21.2;;;;;;;6.2;76.04199;954.5391;;;;
2019/12/17 10:14:52;;;;;;;30.3;21.1;;;;;;;6.16;75.89453;954.5385;;;;
2019/12/17 10:17:17;;;;;;;27.5;19.3;;;;;;;6.07;75.36914;954.4885;;;;
2019/12/17 10:19:42;;;;;;;27.8;19.4;;;;;;;6.1;75.52441;954.5387;;;;
2019/12/17 10:22:07;;;;;;;23.7;17.7;;;;;;;6.17;75.17676;954.575;;;;
2019/12/17 10:24:32;;;;;;;30.3;21.8;;;;;;;6.2;75.50684;954.6525;;;;
2019/12/17 10:26:57;;;;;;;29.7;19.3;;;;;;;6.25;74.46094;954.6208;;;;
2019/12/17 10:29:22;;;;;;;26.1;17.8;;;;;;;6.44;74.27246;954.5428;;;;
2019/12/17 10:31:47;;;;;;;32.6;23.2;;;;;;;6.47;74.4502;954.5475;;;;
2019/12/17 10:34:12;;;;;;;30.5;19.7;;;;;;;6.48;75.16309;954.5927;;;;
2019/12/17 10:36:38;;;;;;;27.7;21.9;;;;;;;6.52;74.66797;954.5952;;;;
2019/12/17 10:39:03;;;;;;;27.8;19.4;;;;;;;6.37;74.91113;954.5851;;;;
2019/12/17 10:41:28;;;;;;;29.1;19.5;;;;;;;6.5;75.33984;954.4419;;;;
2019/12/17 10:43:53;;;;;;;29.1;20.5;;;;;;;6.39;75.09961;954.3811;;;;
2019/12/17 10:46:18;;;;;;;26.6;18.8;;;;;;;6.44;75.0625;954.3755;;;;
2019/12/17 10:48:43;;;;;;;28.2;18.7;;;;;;;6.54;75.21875;954.3233;;;;
2019/12/17 10:51:08;;;;;;;32.6;24.2;;;;;;;6.58;75.01563;954.2819;;;;
2019/12/17 10:53:33;;;;;;;28.5;21.4;;;;;;;6.36;75.1416;954.3676;;;;
2019/12/17 10:55:59;;;;;;;29.6;21;;;;;;;6.35;76.32227;954.3152;;;;
2019/12/17 10:58:31;;;;;;;27.6;20.9;;;;;;;6.44;75.9082;954.3605;;;;
2019/12/17 11:00:49;;;;;;;26.8;20.5;;;;;;;6.45;75.77051;954.3098;;;;
2019/12/17 11:03:13;;;;;;;24.5;18.9;;;;;;;6.49;75.23438;954.2996;;;;
2019/12/17 11:05:38;;;;;;;29.5;18.9;;;;;;;6.54;75.21875;954.2877;;;;
2019/12/17 11:08:03;;;;;;;25.7;17.2;;;;;;;6.52;75.15625;954.2891;;;;
2019/12/17 11:10:28;;;;;;;25.6;16.6;;;;;;;6.66;74.35742;954.3169;;;;
2019/12/17 11:12:54;;;;;;;23.9;16.7;;;;;;;6.71;74.05273;954.2361;;;;
2019/12/17 11:15:19;;;;;;;24.4;17.6;;;;;;;6.75;74.33789;954.217;;;;
2019/12/17 11:17:44;;;;;;;29.3;21;;;;;;;6.66;75.19336;954.1998;;;;
2019/12/17 11:20:09;;;;;;;26.7;18.8;;;;;;;6.86;74.95996;954.1395;;;;
2019/12/17 11:22:34;;;;;;;25.3;16.6;;;;;;;6.7;74.65527;954.2125;;;;
2019/12/17 11:24:59;;;;;;;21.5;16;;;;;;;6.78;75.11035;954.0644;;;;
2019/12/17 11:27:24;;;;;;;22;15.1;;;;;;;6.92;74.27344;953.9851;;;;
2019/12/17 11:29:49;;;;;;;25.4;17.8;;;;;;;7.02;74.94141;954.0634;;;;
2019/12/17 11:32:14;;;;;;;26.4;17.1;;;;;;;7.1;75.30566;953.9704;;;;
2019/12/17 11:34:39;;;;;;;24.2;17.6;;;;;;;7.05;75.09863;954.0315;;;;
2019/12/17 11:37:04;;;;;;;26.5;18.1;;;;;;;7.16;75.02637;953.9607;;;;
2019/12/17 11:39:29;;;;;;;23.1;17.1;;;;;;;7.14;74.77832;954.0048;;;;
2019/12/17 11:41:54;;;;;;;28.1;18.7;;;;;;;7.12;75.29688;954.0814;;;;
2019/12/17 11:44:20;;;;;;;26;18.4;;;;;;;7.11;75.33105;953.8867;;;;
2019/12/17 11:46:45;;;;;;;29.2;18.8;;;;;;;7.12;75.4248;954.0215;;;;
2019/12/17 11:49:10;;;;;;;29.2;19.9;;;;;;;7.09;76.33789;953.9877;;;;
2019/12/17 11:51:35;;;;;;;34.3;22.9;;;;;;;6.99;76.11133;954.0295;;;;
2019/12/17 11:54:00;;;;;;;30.4;22.7;;;;;;;7.07;76.35742;954.118;;;;
2019/12/17 11:56:25;;;;;;;33.2;21.1;;;;;;;7.21;76.05664;953.9664;;;;
2019/12/17 11:58:50;;;;;;;28.5;21;;;;;;;7.12;75.84375;953.9242;;;;
2019/12/17 12:01:15;;;;;;;32.8;20.6;;;;;;;7.24;75.36426;953.9614;;;;
2019/12/17 12:03:40;;;;;;;29;20.8;;;;;;;7.2;75.75293;954.0305;;;;
2019/12/17 12:06:06;;;;;;;28.3;19.4;;;;;;;7.32;75.5293;953.9835;;;;
2019/12/17 12:08:31;;;;;;;24.4;19.3;;;;;;;7.45;74.99414;953.9695;;;;
2019/12/17 12:10:56;;;;;;;24.1;17;;;;;;;7.38;75.30859;954.0269;;;;
2019/12/17 12:13:21;;;;;;;25.7;17.5;;;;;;;7.41;74.91602;953.9733;;;;
2019/12/17 12:15:46;;;;;;;23.2;17.9;;;;;;;7.47;74.68359;953.9328;;;;
2019/12/17 12:18:11;;;;;;;25;17.4;;;;;;;7.48;75.15137;953.8619;;;;
2019/12/17 12:20:36;;;;;;;28.1;18;;;;;;;7.52;75.26172;954.0861;;;;
2019/12/17 12:23:01;;;;;;;24.5;18;;;;;;;7.42;76.03613;954.0086;;;;
2019/12/17 12:25:26;;;;;;;25.3;17.8;;;;;;;7.48;76.4082;953.9778;;;;
2019/12/17 12:27:51;;;;;;;24.1;18.2;;;;;;;7.55;75.61719;953.95;;;;
2019/12/17 12:30:19;;;;;;;23.9;18.6;;;;;;;7.52;75.08789;954.1039;;;;
2019/12/17 12:33:31;;;;;;;23.8;17.6;;;;;;;7.51;74.77148;953.9695;;;;
2019/12/17 12:35:24;;;;;;;23;17.6;;;;;;;7.41;74.95215;953.9503;;;;
2019/12/17 12:37:32;;;;;;;23.2;17.1;;;;;;;7.51;75.13281;954.0692;;;;
2019/12/17 12:39:57;;;;;;;26;18;;;;;;;7.53;75.1709;954.0958;;;;
2019/12/17 12:42:22;;;;;;;25.5;18.1;;;;;;;7.53;75.22852;954.0991;;;;
2019/12/17 12:44:47;;;;;;;23.7;17;;;;;;;7.57;74.96875;954.1047;;;;
2019/12/17 12:47:12;;;;;;;23.8;17.7;;;;;;;7.58;74.8418;954.1429;;;;
2019/12/17 12:49:37;;;;;;;24.6;15.9;;;;;;;7.57;74.50293;954.0513;;;;
2019/12/17 12:52:02;;;;;;;21.9;16.3;;;;;;;7.53;74.75098;954.0338;;;;
2019/12/17 12:54:27;;;;;;;20.6;15.9;;;;;;;7.59;74.59961;954.0463;;;;
2019/12/17 12:56:52;;;;;;;21;17.1;;;;;;;7.55;74.73242;954.0447;;;;
2019/12/17 12:59:17;;;;;;;20.9;16;;;;;;;7.67;74.3584;953.9291;;;;
2019/12/17 13:01:42;;;;;;;23.5;16.5;;;;;;;7.73;75.10254;953.9218;;;;
2019/12/17 13:04:09;;;;;;;22.6;17.1;;;;;;;7.8;74.59082;953.8411;;;;
2019/12/17 13:06:33;;;;;;;24.1;16.2;;;;;;;7.55;75.10352;953.8855;;;;
2019/12/17 13:08:58;;;;;;;21;15.2;;;;;;;7.47;75.28906;953.8722;;;;
2019/12/17 13:11:23;;;;;;;20.3;15.2;;;;;;;7.43;75.99316;953.8463;;;;
2019/12/17 13:13:48;;;;;;;19.8;15.6;;;;;;;7.43;75.89844;953.9453;;;;
2019/12/17 13:16:13;;;;;;;20.5;15.8;;;;;;;7.58;75.58691;953.9472;;;;
2019/12/17 13:18:38;;;;;;;20;15;;;;;;;7.57;74.96875;953.9911;;;;
2019/12/17 13:21:03;;;;;;;19.1;15.7;;;;;;;7.76;74.57031;953.9766;;;;
2019/12/17 13:23:28;;;;;;;20.3;15.9;;;;;;;7.8;74.42773;953.9567;;;;
2019/12/17 13:25:53;;;;;;;21.7;16;;;;;;;7.86;74.12207;953.9954;;;;
2019/12/17 13:28:19;;;;;;;24.6;16.1;;;;;;;7.89;74.93066;953.988;;;;
2019/12/17 13:31:08;;;;;;;21.6;16.8;;;;;;;7.93;75.03125;953.9878;;;;
2019/12/17 13:33:09;;;;;;;26.1;17.1;;;;;;;7.91;75.64551;954.0059;;;;
2019/12/17 13:35:34;;;;;;;22.3;16.9;;;;;;;7.91;75.64551;953.9807;;;;
2019/12/17 13:37:59;;;;;;;23.8;18;;;;;;;7.89;75.81641;953.8996;;;;
2019/12/17 13:40:24;;;;;;;23;17.4;;;;;;;7.92;75.03027;953.801;;;;
2019/12/17 13:42:49;;;;;;;20.7;16.7;;;;;;;7.8;75.4043;954.0266;;;;
2019/12/17 13:45:14;;;;;;;24.3;17.4;;;;;;;7.8;75.58105;953.8855;;;;
2019/12/17 13:47:39;;;;;;;24.5;17.1;;;;;;;7.82;75.60547;954.1158;;;;
2019/12/17 13:50:04;;;;;;;22.6;17.1;;;;;;;7.85;75.625;953.9711;;;;
2019/12/17 13:52:30;;;;;;;23.4;17;;;;;;;7.89;75.71094;954.0275;;;;
2019/12/17 13:54:55;;;;;;;24.3;17.6;;;;;;;7.88;75.97949;953.9867;;;;
2019/12/17 13:57:22;;;;;;;23.8;16.5;;;;;;;8;75.2998;954.0693;;;;
2019/12/17 13:59:45;;;;;;;23.2;16.7;;;;;;;7.98;75.94824;954.0803;;;;
2019/12/17 14:02:10;;;;;;;25.8;17.7;;;;;;;8.01;76.1875;954.0603;;;;
2019/12/17 14:04:35;;;;;;;26.2;18.1;;;;;;;8;76.57031;953.9666;;;;
2019/12/17 14:07:00;;;;;;;28.6;18.7;;;;;;;7.87;77.33887;953.9769;;;;
2019/12/17 14:09:26;;;;;;;23;17.5;;;;;;;7.87;76.93066;954.1269;;;;